sensor_id;sensor_type;location;lat;lon;timestamp;temperature;humidity
21799;DHT22;24973;47.178;15.316;2022-07-23T00:00:20;20.90;99.90
21799;DHT22;24973;47.178;15.316;2022-07-23T00:03:09;20.80;99.90
21799;DHT22;24973;47.178;15.316;2022-07-23T00:05:57;20.70;99.90
21799;DHT22;24973;47.178;15.316;2022-07-23T00:08:46;20.70;99.90
21799;DHT22;24973;47.178;15.316;2022-07-23T00:11:35;20.60;99.90
21799;DHT22;24973;47.178;15.316;2022-07-23T00:14:24;20.50;99.90
21799;DHT22;24973;47.178;15.316;2022-07-23T00:17:14;20.50;99.90
21799;DHT22;24973;47.178;15.316;2022-07-23T00:20:03;20.50;99.90
21799;DHT22;24973;47.178;15.316;2022-07-23T00:22:55;20.40;99.90
21799;DHT22;24973;47.178;15.316;2022-07-23T00:25:43;20.30;99.90
21799;DHT22;24973;47.178;15.316;2022-07-23T00:28:32;20.30;99.90
21799;DHT22;24973;47.178;15.316;2022-07-23T00:31:21;20.30;99.90
21799;DHT22;24973;47.178;15.316;2022-07-23T00:34:11;20.30;99.90
21799;DHT22;24973;47.178;15.316;2022-07-23T00:37:00;20.30;99.90
21799;DHT22;24973;47.178;15.316;2022-07-23T00:39:49;20.40;99.90
21799;DHT22;24973;47.178;15.316;2022-07-23T00:42:38;20.50;99.90
21799;DHT22;24973;47.178;15.316;2022-07-23T00:45:27;20.50;99.90
21799;DHT22;24973;47.178;15.316;2022-07-23T00:48:16;20.30;99.90
21799;DHT22;24973;47.178;15.316;2022-07-23T00:51:07;20.30;99.90
21799;DHT22;24973;47.178;15.316;2022-07-23T00:53:56;20.40;99.90
21799;DHT22;24973;47.178;15.316;2022-07-23T00:56:46;20.50;99.90
21799;DHT22;24973;47.178;15.316;2022-07-23T00:59:35;20.50;99.90
21799;DHT22;24973;47.178;15.316;2022-07-23T01:02:24;20.50;99.90
21799;DHT22;24973;47.178;15.316;2022-07-23T01:05:13;20.50;99.90
21799;DHT22;24973;47.178;15.316;2022-07-23T01:08:03;20.60;99.90
21799;DHT22;24973;47.178;15.316;2022-07-23T01:10:53;20.50;99.90
21799;DHT22;24973;47.178;15.316;2022-07-23T01:13:42;20.40;99.90
21799;DHT22;24973;47.178;15.316;2022-07-23T01:16:31;20.30;99.90
21799;DHT22;24973;47.178;15.316;2022-07-23T01:19:20;20.30;99.90
21799;DHT22;24973;47.178;15.316;2022-07-23T01:22:10;20.40;99.90
21799;DHT22;24973;47.178;15.316;2022-07-23T01:25:00;20.30;99.90
21799;DHT22;24973;47.178;15.316;2022-07-23T01:27:50;20.30;99.90
21799;DHT22;24973;47.178;15.316;2022-07-23T01:30:39;20.20;99.90
21799;DHT22;24973;47.178;15.316;2022-07-23T01:33:28;20.20;99.90
21799;DHT22;24973;47.178;15.316;2022-07-23T01:36:17;20.20;99.90
21799;DHT22;24973;47.178;15.316;2022-07-23T01:39:06;20.00;99.90
21799;DHT22;24973;47.178;15.316;2022-07-23T01:41:57;19.80;99.90
21799;DHT22;24973;47.178;15.316;2022-07-23T01:44:45;19.70;99.90
21799;DHT22;24973;47.178;15.316;2022-07-23T01:47:34;19.70;99.90
21799;DHT22;24973;47.178;15.316;2022-07-23T01:50:23;19.70;99.90
21799;DHT22;24973;47.178;15.316;2022-07-23T01:53:12;19.70;99.90
21799;DHT22;24973;47.178;15.316;2022-07-23T01:56:01;19.70;99.90
21799;DHT22;24973;47.178;15.316;2022-07-23T01:58:52;19.60;99.90
21799;DHT22;24973;47.178;15.316;2022-07-23T02:01:40;19.60;99.90
21799;DHT22;24973;47.178;15.316;2022-07-23T02:04:29;19.70;99.90
21799;DHT22;24973;47.178;15.316;2022-07-23T02:07:18;19.80;99.90
21799;DHT22;24973;47.178;15.316;2022-07-23T02:10:08;19.90;99.90
21799;DHT22;24973;47.178;15.316;2022-07-23T02:12:57;19.80;99.90
21799;DHT22;24973;47.178;15.316;2022-07-23T02:15:47;19.70;99.90
21799;DHT22;24973;47.178;15.316;2022-07-23T02:18:36;19.70;99.90
21799;DHT22;24973;47.178;15.316;2022-07-23T02:21:25;19.60;99.90
21799;DHT22;24973;47.178;15.316;2022-07-23T02:24:14;19.60;99.90
21799;DHT22;24973;47.178;15.316;2022-07-23T02:27:03;19.50;99.90
21799;DHT22;24973;47.178;15.316;2022-07-23T02:29:51;19.50;99.90
21799;DHT22;24973;47.178;15.316;2022-07-23T02:32:42;19.50;99.90
21799;DHT22;24973;47.178;15.316;2022-07-23T02:35:30;19.50;99.90
21799;DHT22;24973;47.178;15.316;2022-07-23T02:38:19;19.50;99.90
21799;DHT22;24973;47.178;15.316;2022-07-23T02:41:08;19.40;99.90
21799;DHT22;24973;47.178;15.316;2022-07-23T02:43:57;19.40;99.90
21799;DHT22;24973;47.178;15.316;2022-07-23T02:46:46;19.40;99.90
21799;DHT22;24973;47.178;15.316;2022-07-23T02:49:36;19.30;99.90
21799;DHT22;24973;47.178;15.316;2022-07-23T02:52:24;19.30;99.90
21799;DHT22;24973;47.178;15.316;2022-07-23T02:55:13;19.30;99.90
21799;DHT22;24973;47.178;15.316;2022-07-23T02:58:02;19.30;99.90
21799;DHT22;24973;47.178;15.316;2022-07-23T03:00:52;19.20;99.90
21799;DHT22;24973;47.178;15.316;2022-07-23T03:03:41;19.20;99.90
21799;DHT22;24973;47.178;15.316;2022-07-23T03:06:31;19.20;99.90
21799;DHT22;24973;47.178;15.316;2022-07-23T03:09:19;19.20;99.90
21799;DHT22;24973;47.178;15.316;2022-07-23T03:12:08;19.30;99.90
21799;DHT22;24973;47.178;15.316;2022-07-23T03:14:59;19.30;99.90
21799;DHT22;24973;47.178;15.316;2022-07-23T03:17:48;19.30;99.90
21799;DHT22;24973;47.178;15.316;2022-07-23T03:20:37;19.20;99.90
21799;DHT22;24973;47.178;15.316;2022-07-23T03:23:27;19.00;99.90
21799;DHT22;24973;47.178;15.316;2022-07-23T03:26:16;18.90;99.90
21799;DHT22;24973;47.178;15.316;2022-07-23T03:29:04;18.90;99.90
21799;DHT22;24973;47.178;15.316;2022-07-23T03:31:53;18.80;99.90
21799;DHT22;24973;47.178;15.316;2022-07-23T03:34:42;18.80;99.90
21799;DHT22;24973;47.178;15.316;2022-07-23T03:37:31;18.70;99.90
21799;DHT22;24973;47.178;15.316;2022-07-23T03:40:21;18.70;99.90
21799;DHT22;24973;47.178;15.316;2022-07-23T03:43:09;18.60;99.90
21799;DHT22;24973;47.178;15.316;2022-07-23T03:45:58;18.50;99.90
21799;DHT22;24973;47.178;15.316;2022-07-23T03:48:47;18.40;99.90
21799;DHT22;24973;47.178;15.316;2022-07-23T03:51:37;18.30;99.90
21799;DHT22;24973;47.178;15.316;2022-07-23T03:54:25;18.30;99.90
21799;DHT22;24973;47.178;15.316;2022-07-23T03:57:15;18.30;99.90
21799;DHT22;24973;47.178;15.316;2022-07-23T04:00:06;18.40;99.90
21799;DHT22;24973;47.178;15.316;2022-07-23T04:02:56;18.40;99.90
21799;DHT22;24973;47.178;15.316;2022-07-23T04:05:45;18.50;99.90
21799;DHT22;24973;47.178;15.316;2022-07-23T04:08:34;18.50;99.90
21799;DHT22;24973;47.178;15.316;2022-07-23T04:11:23;18.40;99.90
21799;DHT22;24973;47.178;15.316;2022-07-23T04:14:13;18.50;99.90
21799;DHT22;24973;47.178;15.316;2022-07-23T04:17:02;18.50;99.90
21799;DHT22;24973;47.178;15.316;2022-07-23T04:19:50;18.60;99.90
21799;DHT22;24973;47.178;15.316;2022-07-23T04:22:39;18.60;99.90
21799;DHT22;24973;47.178;15.316;2022-07-23T04:25:28;18.50;99.90
21799;DHT22;24973;47.178;15.316;2022-07-23T04:28:16;18.50;99.90
21799;DHT22;24973;47.178;15.316;2022-07-23T04:31:07;18.40;99.90
21799;DHT22;24973;47.178;15.316;2022-07-23T04:33:56;18.30;99.90
21799;DHT22;24973;47.178;15.316;2022-07-23T04:36:44;18.30;99.90
21799;DHT22;24973;47.178;15.316;2022-07-23T04:39:33;18.30;99.90
21799;DHT22;24973;47.178;15.316;2022-07-23T04:42:22;18.50;99.90
21799;DHT22;24973;47.178;15.316;2022-07-23T04:45:11;18.70;99.90
21799;DHT22;24973;47.178;15.316;2022-07-23T04:48:01;18.90;99.90
21799;DHT22;24973;47.178;15.316;2022-07-23T04:50:50;18.90;99.90
21799;DHT22;24973;47.178;15.316;2022-07-23T04:53:39;19.00;99.90
21799;DHT22;24973;47.178;15.316;2022-07-23T04:56:27;19.00;99.90
21799;DHT22;24973;47.178;15.316;2022-07-23T04:59:16;19.10;99.90
21799;DHT22;24973;47.178;15.316;2022-07-23T05:02:05;19.20;99.90
21799;DHT22;24973;47.178;15.316;2022-07-23T05:04:55;19.40;99.90
21799;DHT22;24973;47.178;15.316;2022-07-23T05:07:44;19.50;99.90
21799;DHT22;24973;47.178;15.316;2022-07-23T05:10:33;19.60;99.90
21799;DHT22;24973;47.178;15.316;2022-07-23T05:13:21;19.70;99.90
21799;DHT22;24973;47.178;15.316;2022-07-23T05:16:10;19.70;99.90
21799;DHT22;24973;47.178;15.316;2022-07-23T05:18:59;19.70;99.90
21799;DHT22;24973;47.178;15.316;2022-07-23T05:21:49;19.80;99.90
21799;DHT22;24973;47.178;15.316;2022-07-23T05:24:38;20.00;99.90
21799;DHT22;24973;47.178;15.316;2022-07-23T05:27:27;20.20;99.90
21799;DHT22;24973;47.178;15.316;2022-07-23T05:30:16;20.40;99.90
21799;DHT22;24973;47.178;15.316;2022-07-23T05:33:05;20.60;99.90
21799;DHT22;24973;47.178;15.316;2022-07-23T05:36:00;20.80;99.90
21799;DHT22;24973;47.178;15.316;2022-07-23T05:38:51;21.00;99.90
21799;DHT22;24973;47.178;15.316;2022-07-23T05:41:39;21.20;99.90
21799;DHT22;24973;47.178;15.316;2022-07-23T05:44:28;21.40;99.90
21799;DHT22;24973;47.178;15.316;2022-07-23T05:47:20;21.40;99.90
21799;DHT22;24973;47.178;15.316;2022-07-23T05:50:09;21.50;99.90
21799;DHT22;24973;47.178;15.316;2022-07-23T05:52:59;21.50;99.90
21799;DHT22;24973;47.178;15.316;2022-07-23T05:55:49;21.60;99.90
21799;DHT22;24973;47.178;15.316;2022-07-23T05:58:38;21.70;99.90
21799;DHT22;24973;47.178;15.316;2022-07-23T06:01:27;21.80;99.90
21799;DHT22;24973;47.178;15.316;2022-07-23T06:04:16;21.80;99.90
21799;DHT22;24973;47.178;15.316;2022-07-23T06:07:04;21.90;99.90
21799;DHT22;24973;47.178;15.316;2022-07-23T06:09:53;22.10;99.90
21799;DHT22;24973;47.178;15.316;2022-07-23T06:12:43;22.20;99.90
21799;DHT22;24973;47.178;15.316;2022-07-23T06:15:32;22.40;99.90
21799;DHT22;24973;47.178;15.316;2022-07-23T06:18:21;22.60;99.90
21799;DHT22;24973;47.178;15.316;2022-07-23T06:21:10;22.80;99.90
21799;DHT22;24973;47.178;15.316;2022-07-23T06:24:09;23.00;99.90
21799;DHT22;24973;47.178;15.316;2022-07-23T06:26:57;23.20;99.90
21799;DHT22;24973;47.178;15.316;2022-07-23T06:29:48;23.40;99.90
21799;DHT22;24973;47.178;15.316;2022-07-23T06:32:36;23.60;99.90
21799;DHT22;24973;47.178;15.316;2022-07-23T06:35:25;23.80;99.90
21799;DHT22;24973;47.178;15.316;2022-07-23T06:38:14;24.00;99.90
21799;DHT22;24973;47.178;15.316;2022-07-23T06:41:03;24.20;99.90
21799;DHT22;24973;47.178;15.316;2022-07-23T06:43:52;24.40;99.90
21799;DHT22;24973;47.178;15.316;2022-07-23T06:46:42;24.60;99.90
21799;DHT22;24973;47.178;15.316;2022-07-23T06:49:30;24.90;99.90
21799;DHT22;24973;47.178;15.316;2022-07-23T06:52:19;25.20;99.90
21799;DHT22;24973;47.178;15.316;2022-07-23T06:55:08;25.60;99.90
21799;DHT22;24973;47.178;15.316;2022-07-23T06:57:58;25.90;99.90
21799;DHT22;24973;47.178;15.316;2022-07-23T07:00:46;26.30;99.90
21799;DHT22;24973;47.178;15.316;2022-07-23T07:03:37;26.60;99.90
21799;DHT22;24973;47.178;15.316;2022-07-23T07:06:25;26.80;99.90
21799;DHT22;24973;47.178;15.316;2022-07-23T07:09:14;26.90;99.90
21799;DHT22;24973;47.178;15.316;2022-07-23T07:12:03;27.00;99.90
21799;DHT22;24973;47.178;15.316;2022-07-23T07:14:53;27.10;99.90
21799;DHT22;24973;47.178;15.316;2022-07-23T07:17:41;27.10;99.90
21799;DHT22;24973;47.178;15.316;2022-07-23T07:20:32;27.10;99.90
21799;DHT22;24973;47.178;15.316;2022-07-23T07:23:23;26.70;99.90
21799;DHT22;24973;47.178;15.316;2022-07-23T07:26:12;27.10;99.90
21799;DHT22;24973;47.178;15.316;2022-07-23T07:29:01;27.10;99.90
21799;DHT22;24973;47.178;15.316;2022-07-23T07:31:50;27.10;99.90
21799;DHT22;24973;47.178;15.316;2022-07-23T07:34:39;27.10;99.90
21799;DHT22;24973;47.178;15.316;2022-07-23T07:37:29;27.30;99.90
21799;DHT22;24973;47.178;15.316;2022-07-23T07:40:18;27.50;99.90
21799;DHT22;24973;47.178;15.316;2022-07-23T07:43:07;27.80;99.30
21799;DHT22;24973;47.178;15.316;2022-07-23T07:45:56;28.00;96.60
21799;DHT22;24973;47.178;15.316;2022-07-23T07:48:46;28.20;96.80
21799;DHT22;24973;47.178;15.316;2022-07-23T07:51:36;28.40;96.40
21799;DHT22;24973;47.178;15.316;2022-07-23T07:54:27;28.60;96.40
21799;DHT22;24973;47.178;15.316;2022-07-23T07:57:15;28.70;95.60
21799;DHT22;24973;47.178;15.316;2022-07-23T08:00:05;28.80;95.10
21799;DHT22;24973;47.178;15.316;2022-07-23T08:02:56;29.00;93.30
21799;DHT22;24973;47.178;15.316;2022-07-23T08:05:44;29.20;93.40
21799;DHT22;24973;47.178;15.316;2022-07-23T08:08:33;29.40;93.00
21799;DHT22;24973;47.178;15.316;2022-07-23T08:11:24;29.60;92.30
21799;DHT22;24973;47.178;15.316;2022-07-23T08:14:13;29.70;91.30
21799;DHT22;24973;47.178;15.316;2022-07-23T08:17:02;29.90;89.00
21799;DHT22;24973;47.178;15.316;2022-07-23T08:19:59;30.10;88.60
21799;DHT22;24973;47.178;15.316;2022-07-23T08:22:50;30.20;87.20
21799;DHT22;24973;47.178;15.316;2022-07-23T08:25:41;30.30;87.00
21799;DHT22;24973;47.178;15.316;2022-07-23T08:28:32;30.40;82.60
21799;DHT22;24973;47.178;15.316;2022-07-23T08:31:21;30.30;82.50
21799;DHT22;24973;47.178;15.316;2022-07-23T08:34:09;30.40;82.20
21799;DHT22;24973;47.178;15.316;2022-07-23T08:36:58;30.50;80.90
21799;DHT22;24973;47.178;15.316;2022-07-23T08:39:47;30.60;79.70
21799;DHT22;24973;47.178;15.316;2022-07-23T08:42:37;30.80;77.70
21799;DHT22;24973;47.178;15.316;2022-07-23T08:45:28;30.70;78.40
21799;DHT22;24973;47.178;15.316;2022-07-23T08:48:18;30.60;75.40
21799;DHT22;24973;47.178;15.316;2022-07-23T08:51:08;30.50;74.70
21799;DHT22;24973;47.178;15.316;2022-07-23T08:53:58;30.50;74.40
21799;DHT22;24973;47.178;15.316;2022-07-23T08:56:47;30.50;76.00
21799;DHT22;24973;47.178;15.316;2022-07-23T08:59:36;30.50;74.80
21799;DHT22;24973;47.178;15.316;2022-07-23T09:02:26;30.60;75.90
21799;DHT22;24973;47.178;15.316;2022-07-23T09:05:15;30.50;74.60
21799;DHT22;24973;47.178;15.316;2022-07-23T09:08:12;30.60;74.20
21799;DHT22;24973;47.178;15.316;2022-07-23T09:11:04;30.50;73.60
21799;DHT22;24973;47.178;15.316;2022-07-23T09:13:56;30.40;72.20
21799;DHT22;24973;47.178;15.316;2022-07-23T09:16:48;30.40;72.80
21799;DHT22;24973;47.178;15.316;2022-07-23T09:19:39;30.40;73.70
21799;DHT22;24973;47.178;15.316;2022-07-23T09:22:27;30.40;73.00
21799;DHT22;24973;47.178;15.316;2022-07-23T09:25:18;30.50;73.90
21799;DHT22;24973;47.178;15.316;2022-07-23T09:28:07;30.50;73.60
21799;DHT22;24973;47.178;15.316;2022-07-23T09:30:56;30.40;73.80
21799;DHT22;24973;47.178;15.316;2022-07-23T09:33:45;30.40;71.90
21799;DHT22;24973;47.178;15.316;2022-07-23T09:36:35;30.30;71.00
21799;DHT22;24973;47.178;15.316;2022-07-23T09:39:29;30.10;71.60
21799;DHT22;24973;47.178;15.316;2022-07-23T09:42:20;30.00;72.20
21799;DHT22;24973;47.178;15.316;2022-07-23T09:45:11;29.90;73.90
21799;DHT22;24973;47.178;15.316;2022-07-23T09:48:10;29.80;75.60
21799;DHT22;24973;47.178;15.316;2022-07-23T09:51:02;29.70;77.10
21799;DHT22;24973;47.178;15.316;2022-07-23T09:53:52;29.70;80.10
21799;DHT22;24973;47.178;15.316;2022-07-23T09:56:42;29.70;82.70
21799;DHT22;24973;47.178;15.316;2022-07-23T09:59:32;29.80;81.60
21799;DHT22;24973;47.178;15.316;2022-07-23T10:02:22;29.90;81.70
21799;DHT22;24973;47.178;15.316;2022-07-23T10:05:14;29.80;77.10
21799;DHT22;24973;47.178;15.316;2022-07-23T10:08:04;30.00;77.10
21799;DHT22;24973;47.178;15.316;2022-07-23T10:10:56;30.10;76.70
21799;DHT22;24973;47.178;15.316;2022-07-23T10:13:45;30.40;76.60
21799;DHT22;24973;47.178;15.316;2022-07-23T10:16:42;30.70;75.50
21799;DHT22;24973;47.178;15.316;2022-07-23T10:19:32;31.10;76.20
21799;DHT22;24973;47.178;15.316;2022-07-23T10:22:23;31.30;75.80
21799;DHT22;24973;47.178;15.316;2022-07-23T10:25:22;31.50;72.80
21799;DHT22;24973;47.178;15.316;2022-07-23T10:28:37;31.50;70.00
21799;DHT22;24973;47.178;15.316;2022-07-23T10:31:41;31.50;68.10
21799;DHT22;24973;47.178;15.316;2022-07-23T10:34:48;31.60;68.30
21799;DHT22;24973;47.178;15.316;2022-07-23T10:37:43;32.00;67.50
21799;DHT22;24973;47.178;15.316;2022-07-23T10:40:34;32.40;65.10
21799;DHT22;24973;47.178;15.316;2022-07-23T10:43:25;32.80;65.50
21799;DHT22;24973;47.178;15.316;2022-07-23T10:46:24;32.90;63.20
21799;DHT22;24973;47.178;15.316;2022-07-23T10:49:24;32.90;63.30
21799;DHT22;24973;47.178;15.316;2022-07-23T10:52:32;33.00;62.40
21799;DHT22;24973;47.178;15.316;2022-07-23T10:55:39;33.20;60.70
21799;DHT22;24973;47.178;15.316;2022-07-23T10:58:54;33.40;59.90
21799;DHT22;24973;47.178;15.316;2022-07-23T11:01:51;33.70;59.60
21799;DHT22;24973;47.178;15.316;2022-07-23T11:04:51;34.10;60.00
21799;DHT22;24973;47.178;15.316;2022-07-23T11:11:12;34.70;58.20
21799;DHT22;24973;47.178;15.316;2022-07-23T11:14:04;35.10;56.90
21799;DHT22;24973;47.178;15.316;2022-07-23T11:16:55;35.20;55.80
21799;DHT22;24973;47.178;15.316;2022-07-23T11:20:17;35.50;55.20
21799;DHT22;24973;47.178;15.316;2022-07-23T11:23:08;35.80;53.70
21799;DHT22;24973;47.178;15.316;2022-07-23T11:25:57;35.90;54.10
21799;DHT22;24973;47.178;15.316;2022-07-23T11:28:46;35.90;53.20
21799;DHT22;24973;47.178;15.316;2022-07-23T11:31:36;36.10;53.30
21799;DHT22;24973;47.178;15.316;2022-07-23T11:34:29;36.30;54.10
21799;DHT22;24973;47.178;15.316;2022-07-23T11:37:36;36.60;53.10
21799;DHT22;24973;47.178;15.316;2022-07-23T11:40:26;36.70;51.70
21799;DHT22;24973;47.178;15.316;2022-07-23T11:43:15;36.50;50.20
21799;DHT22;24973;47.178;15.316;2022-07-23T11:46:04;36.20;50.70
21799;DHT22;24973;47.178;15.316;2022-07-23T11:49:03;36.30;51.20
21799;DHT22;24973;47.178;15.316;2022-07-23T11:52:04;36.20;49.90
21799;DHT22;24973;47.178;15.316;2022-07-23T11:54:55;36.10;49.00
21799;DHT22;24973;47.178;15.316;2022-07-23T11:57:45;36.20;49.10
21799;DHT22;24973;47.178;15.316;2022-07-23T12:00:34;36.20;49.10
21799;DHT22;24973;47.178;15.316;2022-07-23T12:03:26;36.30;48.60
21799;DHT22;24973;47.178;15.316;2022-07-23T12:06:17;36.10;46.20
21799;DHT22;24973;47.178;15.316;2022-07-23T12:09:07;35.70;47.20
21799;DHT22;24973;47.178;15.316;2022-07-23T12:11:59;35.40;48.10
21799;DHT22;24973;47.178;15.316;2022-07-23T12:14:50;35.00;49.20
21799;DHT22;24973;47.178;15.316;2022-07-23T12:17:41;35.10;48.90
21799;DHT22;24973;47.178;15.316;2022-07-23T12:20:38;35.00;49.40
21799;DHT22;24973;47.178;15.316;2022-07-23T12:23:31;35.20;49.30
21799;DHT22;24973;47.178;15.316;2022-07-23T12:26:19;35.80;49.70
21799;DHT22;24973;47.178;15.316;2022-07-23T12:29:08;36.00;48.60
21799;DHT22;24973;47.178;15.316;2022-07-23T12:31:57;35.60;47.10
21799;DHT22;24973;47.178;15.316;2022-07-23T12:34:48;35.40;47.90
21799;DHT22;24973;47.178;15.316;2022-07-23T12:37:40;34.90;47.70
21799;DHT22;24973;47.178;15.316;2022-07-23T12:40:33;34.70;48.30
21799;DHT22;24973;47.178;15.316;2022-07-23T12:43:25;35.00;48.20
21799;DHT22;24973;47.178;15.316;2022-07-23T12:46:16;35.30;47.70
21799;DHT22;24973;47.178;15.316;2022-07-23T12:49:07;35.70;49.30
21799;DHT22;24973;47.178;15.316;2022-07-23T12:51:55;36.40;50.40
21799;DHT22;24973;47.178;15.316;2022-07-23T12:54:44;37.00;48.20
21799;DHT22;24973;47.178;15.316;2022-07-23T12:57:47;37.60;49.20
21799;DHT22;24973;47.178;15.316;2022-07-23T13:01:06;38.30;48.70
21799;DHT22;24973;47.178;15.316;2022-07-23T13:03:57;38.60;46.60
21799;DHT22;24973;47.178;15.316;2022-07-23T13:06:49;39.10;47.70
21799;DHT22;24973;47.178;15.316;2022-07-23T13:09:39;39.50;47.30
21799;DHT22;24973;47.178;15.316;2022-07-23T13:12:28;39.60;46.20
21799;DHT22;24973;47.178;15.316;2022-07-23T13:15:18;39.10;45.30
21799;DHT22;24973;47.178;15.316;2022-07-23T13:18:08;39.00;45.40
21799;DHT22;24973;47.178;15.316;2022-07-23T13:20:57;38.90;45.10
21799;DHT22;24973;47.178;15.316;2022-07-23T13:23:46;39.00;46.30
21799;DHT22;24973;47.178;15.316;2022-07-23T13:26:36;39.20;46.00
21799;DHT22;24973;47.178;15.316;2022-07-23T13:29:25;39.40;45.90
21799;DHT22;24973;47.178;15.316;2022-07-23T13:32:16;39.30;45.40
21799;DHT22;24973;47.178;15.316;2022-07-23T13:35:05;39.00;45.50
21799;DHT22;24973;47.178;15.316;2022-07-23T13:37:55;38.70;45.70
21799;DHT22;24973;47.178;15.316;2022-07-23T13:40:46;38.60;45.70
21799;DHT22;24973;47.178;15.316;2022-07-23T13:43:36;38.60;46.20
21799;DHT22;24973;47.178;15.316;2022-07-23T13:46:24;38.60;45.60
21799;DHT22;24973;47.178;15.316;2022-07-23T13:49:14;38.80;46.60
21799;DHT22;24973;47.178;15.316;2022-07-23T13:52:04;38.80;46.10
21799;DHT22;24973;47.178;15.316;2022-07-23T13:54:53;38.50;46.30
21799;DHT22;24973;47.178;15.316;2022-07-23T13:57:42;38.30;46.20
21799;DHT22;24973;47.178;15.316;2022-07-23T14:00:32;37.90;46.30
21799;DHT22;24973;47.178;15.316;2022-07-23T14:03:37;37.50;46.40
21799;DHT22;24973;47.178;15.316;2022-07-23T14:06:27;37.20;47.00
21799;DHT22;24973;47.178;15.316;2022-07-23T14:09:16;36.90;47.30
21799;DHT22;24973;47.178;15.316;2022-07-23T14:12:05;36.40;47.40
21799;DHT22;24973;47.178;15.316;2022-07-23T14:14:54;36.10;48.90
21799;DHT22;24973;47.178;15.316;2022-07-23T14:17:45;35.90;49.20
21799;DHT22;24973;47.178;15.316;2022-07-23T14:20:34;35.60;48.90
21799;DHT22;24973;47.178;15.316;2022-07-23T14:23:25;35.40;50.80
21799;DHT22;24973;47.178;15.316;2022-07-23T14:26:16;35.20;51.20
21799;DHT22;24973;47.178;15.316;2022-07-23T14:29:04;35.10;52.40
21799;DHT22;24973;47.178;15.316;2022-07-23T14:31:53;35.20;53.60
21799;DHT22;24973;47.178;15.316;2022-07-23T14:34:42;35.80;52.80
21799;DHT22;24973;47.178;15.316;2022-07-23T14:37:33;36.40;51.30
21799;DHT22;24973;47.178;15.316;2022-07-23T14:40:23;37.00;51.20
21799;DHT22;24973;47.178;15.316;2022-07-23T14:43:12;37.50;49.50
21799;DHT22;24973;47.178;15.316;2022-07-23T14:46:01;38.00;48.10
21799;DHT22;24973;47.178;15.316;2022-07-23T14:48:50;38.30;46.60
21799;DHT22;24973;47.178;15.316;2022-07-23T14:51:38;38.60;46.30
21799;DHT22;24973;47.178;15.316;2022-07-23T14:54:29;39.00;46.90
21799;DHT22;24973;47.178;15.316;2022-07-23T14:57:20;39.30;46.30
21799;DHT22;24973;47.178;15.316;2022-07-23T15:00:13;39.70;46.30
21799;DHT22;24973;47.178;15.316;2022-07-23T15:03:03;39.90;44.50
21799;DHT22;24973;47.178;15.316;2022-07-23T15:05:51;39.70;44.70
21799;DHT22;24973;47.178;15.316;2022-07-23T15:08:40;39.30;44.90
21799;DHT22;24973;47.178;15.316;2022-07-23T15:14:22;38.80;44.10
21799;DHT22;24973;47.178;15.316;2022-07-23T15:17:10;38.30;46.00
21799;DHT22;24973;47.178;15.316;2022-07-23T15:19:59;37.80;47.50
21799;DHT22;24973;47.178;15.316;2022-07-23T15:22:48;37.30;48.30
21799;DHT22;24973;47.178;15.316;2022-07-23T15:25:37;36.80;50.10
21799;DHT22;24973;47.178;15.316;2022-07-23T15:28:28;36.40;51.20
21799;DHT22;24973;47.178;15.316;2022-07-23T15:31:18;36.30;52.20
21799;DHT22;24973;47.178;15.316;2022-07-23T15:34:06;36.30;51.50
21799;DHT22;24973;47.178;15.316;2022-07-23T15:36:55;36.50;52.00
21799;DHT22;24973;47.178;15.316;2022-07-23T15:39:44;37.10;50.20
21799;DHT22;24973;47.178;15.316;2022-07-23T15:42:33;37.70;49.30
21799;DHT22;24973;47.178;15.316;2022-07-23T15:45:21;38.50;49.80
21799;DHT22;24973;47.178;15.316;2022-07-23T15:48:12;39.10;46.90
21799;DHT22;24973;47.178;15.316;2022-07-23T15:51:01;39.60;46.30
21799;DHT22;24973;47.178;15.316;2022-07-23T15:53:49;40.00;47.30
21799;DHT22;24973;47.178;15.316;2022-07-23T15:56:38;40.40;45.50
21799;DHT22;24973;47.178;15.316;2022-07-23T15:59:27;40.60;43.90
21799;DHT22;24973;47.178;15.316;2022-07-23T16:02:16;40.90;44.70
21799;DHT22;24973;47.178;15.316;2022-07-23T16:05:07;41.10;44.90
21799;DHT22;24973;47.178;15.316;2022-07-23T16:07:57;41.20;45.40
21799;DHT22;24973;47.178;15.316;2022-07-23T16:10:45;41.30;45.10
21799;DHT22;24973;47.178;15.316;2022-07-23T16:13:34;41.40;45.00
21799;DHT22;24973;47.178;15.316;2022-07-23T16:16:23;41.40;43.80
21799;DHT22;24973;47.178;15.316;2022-07-23T16:19:13;41.30;44.40
21799;DHT22;24973;47.178;15.316;2022-07-23T16:22:03;41.10;44.40
21799;DHT22;24973;47.178;15.316;2022-07-23T16:24:52;41.10;44.80
21799;DHT22;24973;47.178;15.316;2022-07-23T16:27:41;40.90;44.50
21799;DHT22;24973;47.178;15.316;2022-07-23T16:30:29;40.40;44.30
21799;DHT22;24973;47.178;15.316;2022-07-23T16:33:18;39.60;45.40
21799;DHT22;24973;47.178;15.316;2022-07-23T16:36:08;38.80;46.60
21799;DHT22;24973;47.178;15.316;2022-07-23T16:38:58;38.00;47.20
21799;DHT22;24973;47.178;15.316;2022-07-23T16:41:50;37.20;48.10
21799;DHT22;24973;47.178;15.316;2022-07-23T16:44:39;36.40;48.20
21799;DHT22;24973;47.178;15.316;2022-07-23T16:47:28;35.70;49.30
21799;DHT22;24973;47.178;15.316;2022-07-23T16:50:17;35.20;50.10
21799;DHT22;24973;47.178;15.316;2022-07-23T16:53:05;34.70;50.70
21799;DHT22;24973;47.178;15.316;2022-07-23T16:55:56;34.30;51.40
21799;DHT22;24973;47.178;15.316;2022-07-23T16:58:45;33.90;52.20
21799;DHT22;24973;47.178;15.316;2022-07-23T17:01:34;33.50;53.10
21799;DHT22;24973;47.178;15.316;2022-07-23T17:04:23;33.20;53.70
21799;DHT22;24973;47.178;15.316;2022-07-23T17:07:11;32.90;54.00
21799;DHT22;24973;47.178;15.316;2022-07-23T17:10:00;32.60;54.50
21799;DHT22;24973;47.178;15.316;2022-07-23T17:12:50;32.30;55.20
21799;DHT22;24973;47.178;15.316;2022-07-23T17:15:39;32.00;55.70
21799;DHT22;24973;47.178;15.316;2022-07-23T17:18:28;31.80;55.90
21799;DHT22;24973;47.178;15.316;2022-07-23T17:21:17;31.50;56.20
21799;DHT22;24973;47.178;15.316;2022-07-23T17:24:06;31.30;57.00
21799;DHT22;24973;47.178;15.316;2022-07-23T17:26:55;31.10;57.30
21799;DHT22;24973;47.178;15.316;2022-07-23T17:29:47;30.80;57.30
21799;DHT22;24973;47.178;15.316;2022-07-23T17:32:35;30.60;57.40
21799;DHT22;24973;47.178;15.316;2022-07-23T17:35:25;30.40;58.80
21799;DHT22;24973;47.178;15.316;2022-07-23T17:38:13;30.20;60.40
21799;DHT22;24973;47.178;15.316;2022-07-23T17:41:02;29.80;62.80
21799;DHT22;24973;47.178;15.316;2022-07-23T17:43:51;29.40;65.00